Latest Weather Observations for Colpoys Point

IDW60901

Issued at 6:21 pm WST Sunday 10 May 2026 (issued every 10 minutes, with the page automatically refreshed every 10 minutes)

About weather observations | Map of Perth area stations | Latest observations for Perth area | Other Formats
Station Details ID: 009255 Name: COLPOYS POINT Lat: -32.23 Lon: 115.70 Height: 3.0 m
Data from the previous 72 hours. | See also: Recent months for locations in Western Australia
Date/Time
WST
Temp
°C
App
Temp
°C
Dew
Point
°C
Rel
Hum
%
Delta-T
°C
Wind Press
QNH
hPa
Press
MSL
hPa
Rain since
9am
mm
Dir  Spd
km/h
Gust
km/h
Spd
kts
Gust
kts
10/06:00pm - - - - - SSW 9 11 5 6 - - -
10/05:30pm - - - - - SW 9 11 5 6 - - -
10/05:00pm - - - - - W 7 9 4 5 - - -
10/04:30pm - - - - - WSW 9 11 5 6 - - -
10/04:00pm - - - - - CALM 0 0 0 0 - - -
10/03:30pm - - - - - N 7 9 4 5 - - -
10/03:00pm - - - - - NNW 9 11 5 6 - - -
10/02:30pm - - - - - N 11 13 6 7 - - -
10/02:00pm - - - - - N 11 15 6 8 - - -
10/01:30pm - - - - - N 11 15 6 8 - - -
10/01:00pm - - - - - NNE 9 11 5 6 - - -
10/12:30pm - - - - - NNE 15 17 8 9 - - -
10/12:00pm - - - - - NNE 19 22 10 12 - - -
10/11:30am - - - - - NNE 19 24 10 13 - - -
10/11:00am - - - - - NNE 24 30 13 16 - - -
10/10:30am - - - - - NNE 28 33 15 18 - - -
10/10:00am - - - - - NNE 28 33 15 18 - - -
10/09:30am - - - - - NNE 28 33 15 18 - - -
10/09:00am - - - - - NNE 28 33 15 18 - - -
10/08:30am - - - - - NE 30 35 16 19 - - -
10/08:00am - - - - - NE 32 37 17 20 - - -
10/07:30am - - - - - NE 32 35 17 19 - - -
10/07:00am - - - - - NE 30 35 16 19 - - -
10/06:30am - - - - - NE 30 37 16 20 - - -
10/06:00am - - - - - NE 30 35 16 19 - - -
10/05:30am - - - - - NE 32 37 17 20 - - -
10/05:00am - - - - - NE 32 37 17 20 - - -
10/04:30am - - - - - NE 26 32 14 17 - - -
10/04:00am - - - - - NE 28 33 15 18 - - -
10/03:30am - - - - - NE 28 32 15 17 - - -
10/03:00am - - - - - NE 28 32 15 17 - - -
10/02:30am - - - - - ENE 26 30 14 16 - - -
10/02:00am - - - - - ENE 24 28 13 15 - - -
10/01:30am - - - - - ENE 22 26 12 14 - - -
10/01:00am - - - - - ENE 20 26 11 14 - - -
10/12:30am - - - - - ENE 22 26 12 14 - - -
10/12:00am - - - - - ENE 28 30 15 16 - - -
 
Date/Time
WST
Temp
°C
App
Temp
°C
Dew
Point
°C
Rel
Hum
%
Delta-T
°C
Wind Press
QNH
hPa
Press
MSL
hPa
Rain since
9am
mm
Dir  Spd
km/h
Gust
km/h
Spd
kts
Gust
kts
09/11:30pm - - - - - ENE 24 26 13 14 - - -
09/11:00pm - - - - - ENE 19 22 10 12 - - -
09/10:30pm - - - - - NE 20 26 11 14 - - -
09/10:00pm - - - - - ENE 22 26 12 14 - - -
09/09:30pm - - - - - E 20 24 11 13 - - -
09/09:00pm - - - - - E 19 22 10 12 - - -
09/08:30pm - - - - - ENE 17 20 9 11 - - -
09/08:00pm - - - - - E 17 19 9 10 - - -
09/07:30pm - - - - - E 17 19 9 10 - - -
09/07:00pm - - - - - ENE 11 13 6 7 - - -
09/06:30pm - - - - - E 13 13 7 7 - - -
09/06:00pm - - - - - E 13 15 7 8 - - -
09/05:30pm - - - - - ENE 11 13 6 7 - - -
09/05:00pm - - - - - NE 7 9 4 5 - - -
09/04:30pm - - - - - NE 9 11 5 6 - - -
09/04:00pm - - - - - NE 9 15 5 8 - - -
09/03:30pm - - - - - NE 9 11 5 6 - - -
09/03:00pm - - - - - NE 15 19 8 10 - - -
09/02:30pm - - - - - ENE 17 22 9 12 - - -
09/02:00pm - - - - - ENE 15 19 8 10 - - -
09/01:30pm - - - - - NE 17 22 9 12 - - -
09/01:00pm - - - - - NE 22 26 12 14 - - -
09/12:30pm - - - - - NE 24 28 13 15 - - -
09/12:00pm - - - - - NE 24 30 13 16 - - -
09/11:30am - - - - - NE 28 33 15 18 - - -
09/11:00am - - - - - NE 24 30 13 16 - - -
09/10:30am - - - - - NE 26 30 14 16 - - -
09/10:00am - - - - - NE 28 35 15 19 - - -
09/09:30am - - - - - NE 30 35 16 19 - - -
09/09:00am - - - - - NE 28 33 15 18 - - -
09/08:30am - - - - - NE 26 32 14 17 - - -
09/08:00am - - - - - NE 28 32 15 17 - - -
09/07:30am - - - - - NE 28 33 15 18 - - -
09/07:00am - - - - - NE 28 32 15 17 - - -
09/06:30am - - - - - NE 32 35 17 19 - - -
09/06:00am - - - - - NE 32 35 17 19 - - -
09/05:30am - - - - - NE 30 33 16 18 - - -
09/05:00am - - - - - NE 32 35 17 19 - - -
09/04:30am - - - - - NE 30 33 16 18 - - -
09/04:00am - - - - - NE 26 32 14 17 - - -
09/03:30am - - - - - NE 22 28 12 15 - - -
09/03:00am - - - - - NE 26 33 14 18 - - -
09/02:30am - - - - - NE 28 32 15 17 - - -
09/02:00am - - - - - ENE 28 32 15 17 - - -
09/01:30am - - - - - ENE 30 33 16 18 - - -
09/01:00am - - - - - ENE 26 30 14 16 - - -
09/12:30am - - - - - ENE 20 28 11 15 - - -
09/12:00am - - - - - ENE 19 24 10 13 - - -
 
Date/Time
WST
Temp
°C
App
Temp
°C
Dew
Point
°C
Rel
Hum
%
Delta-T
°C
Wind Press
QNH
hPa
Press
MSL
hPa
Rain since
9am
mm
Dir  Spd
km/h
Gust
km/h
Spd
kts
Gust
kts
08/11:30pm - - - - - NE 24 30 13 16 - - -
08/11:00pm - - - - - NE 17 22 9 12 - - -
08/10:30pm - - - - - ENE 11 13 6 7 - - -
08/10:00pm - - - - - ENE 19 24 10 13 - - -
08/09:30pm - - - - - ENE 17 22 9 12 - - -
08/09:00pm - - - - - ENE 13 17 7 9 - - -
08/08:30pm - - - - - ENE 15 17 8 9 - - -
08/08:00pm - - - - - E 15 19 8 10 - - -
08/07:30pm - - - - - E 17 20 9 11 - - -
08/07:00pm - - - - - E 20 24 11 13 - - -
08/06:30pm - - - - - E 24 28 13 15 - - -
08/06:00pm - - - - - E 20 26 11 14 - - -
08/05:30pm - - - - - ENE 22 28 12 15 - - -
08/05:00pm - - - - - E 28 32 15 17 - - -
08/04:30pm - - - - - E 28 33 15 18 - - -
08/04:00pm - - - - - ENE 24 30 13 16 - - -
08/03:30pm - - - - - ENE 22 28 12 15 - - -
08/03:00pm - - - - - ENE 26 32 14 17 - - -
08/02:30pm - - - - - ENE 19 26 10 14 - - -
08/02:00pm - - - - - ENE 20 26 11 14 - - -
08/01:30pm - - - - - ENE 24 32 13 17 - - -
08/01:00pm - - - - - ENE 28 33 15 18 - - -
08/12:30pm - - - - - ENE 26 33 14 18 - - -
08/12:00pm - - - - - NE 24 30 13 16 - - -
08/11:30am - - - - - ENE 28 33 15 18 - - -
08/11:00am - - - - - NE 32 39 17 21 - - -
08/10:30am - - - - - ENE 24 32 13 17 - - -
08/10:00am - - - - - ENE 24 28 13 15 - - -
08/09:30am - - - - - ENE 24 32 13 17 - - -
08/09:00am - - - - - ENE 28 32 15 17 - - -
08/08:30am - - - - - ENE 32 37 17 20 - - -
08/08:00am - - - - - ENE 32 37 17 20 - - -
08/07:30am - - - - - ENE 28 32 15 17 - - -
08/07:00am - - - - - ENE 32 35 17 19 - - -
08/06:30am - - - - - ENE 28 33 15 18 - - -
08/06:00am - - - - - ENE 28 32 15 17 - - -
08/05:30am - - - - - ENE 26 30 14 16 - - -
08/05:00am - - - - - ENE 28 32 15 17 - - -
08/04:30am - - - - - ENE 26 30 14 16 - - -
08/04:00am - - - - - ENE 22 28 12 15 - - -
08/03:30am - - - - - ENE 24 28 13 15 - - -
08/03:00am - - - - - ENE 26 32 14 17 - - -
08/02:30am - - - - - ENE 30 33 16 18 - - -
08/02:00am - - - - - ENE 28 35 15 19 - - -
08/01:30am - - - - - ENE 28 35 15 19 - - -
08/01:00am - - - - - ENE 26 33 14 18 - - -
08/12:30am - - - - - ENE 20 28 11 15 - - -
08/12:00am - - - - - E 17 19 9 10 - - -
 
Date/Time
WST
Temp
°C
App
Temp
°C
Dew
Point
°C
Rel
Hum
%
Delta-T
°C
Wind Press
QNH
hPa
Press
MSL
hPa
Rain since
9am
mm
Dir  Spd
km/h
Gust
km/h
Spd
kts
Gust
kts
07/11:30pm - - - - - E 17 20 9 11 - - -
07/11:00pm - - - - - E 17 20 9 11 - - -
07/10:30pm - - - - - E 17 20 9 11 - - -
07/10:00pm - - - - - E 19 22 10 12 - - -
07/09:30pm - - - - - E 20 26 11 14 - - -
07/09:00pm - - - - - ESE 19 26 10 14 - - -
07/08:30pm - - - - - ESE 15 17 8 9 - - -
07/08:00pm - - - - - ESE 19 24 10 13 - - -
07/07:30pm - - - - - E 19 22 10 12 - - -
07/07:00pm - - - - - E 20 26 11 14 - - -
07/06:30pm - - - - - ESE 20 28 11 15 - - -

Latest Capital City Observations: Canberra | Sydney | Melbourne | Brisbane | Adelaide | Perth | Hobart | Darwin

Other formats

Comma delimited format used in spreadsheet applications
http://www.bom.gov.au/fwo/IDW60901/IDW60901.99255.axf

JavaScript Object Notation format (JSON) in row-major order
http://www.bom.gov.au/fwo/IDW60901/IDW60901.99255.json

Data quality

Most of these data are generated automatically and are frequently updated. Quality checks on data are not normally performed. It is possible for incorrect values to appear. Refer to information at About Latest Weather Observations and please check the disclaimer before using these data.